Time;durP1;ratioP1;P1;durP2;ratioP2;P2;SDS_P1;SDS_P2;PMS_P1;PMS_P2;Temp;Humidity;BMP_temperature;BMP_pressure;BME280_temperature;BME280_humidity;BME280_pressure;Samples;Min_cycle;Max_cycle;Signal;HPM_P1;HPM_P2
2022/10/31 00:01:23;;;;;;;12.10;11.05;;;;;;;9.11;100.00;154817.13;4999510;28;20046;-72
2022/10/31 00:03:49;;;;;;;12.00;10.77;;;;;;;9.11;100.00;154817.13;4986765;28;20045;-72
2022/10/31 00:06:17;;;;;;;11.80;10.70;;;;;;;9.09;100.00;154810.75;4982466;28;20050;-73
2022/10/31 00:08:51;;;;;;;11.85;9.75;;;;;;;9.07;100.00;154806.88;4965539;28;20050;-73
2022/10/31 00:11:18;;;;;;;13.20;10.23;;;;;;;9.09;100.00;154812.00;4984787;28;20058;-72
2022/10/31 00:13:43;;;;;;;11.27;10.25;;;;;;;9.06;100.00;154803.03;4963040;28;20052;-71
2022/10/31 00:16:17;;;;;;;10.57;9.57;;;;;;;9.04;100.00;154799.22;4984374;28;20065;-72
2022/10/31 00:18:43;;;;;;;10.90;9.80;;;;;;;9.03;100.00;154796.63;4961604;28;20046;-75
2022/10/31 00:21:09;;;;;;;10.82;9.73;;;;;;;9.02;100.00;154794.06;5000731;28;20817;-73
2022/10/31 00:23:35;;;;;;;12.98;9.82;;;;;;;9.02;100.00;154792.78;4971401;28;20041;-73
2022/10/31 00:26:05;;;;;;;10.60;9.60;;;;;;;9.02;100.00;154794.06;4970968;28;20132;-72
2022/10/31 00:28:31;;;;;;;9.68;8.77;;;;;;;9.03;100.00;154795.38;4989257;28;20046;-72
2022/10/31 00:31:09;;;;;;;10.65;8.73;;;;;;;9.02;100.00;154794.06;4967481;28;20037;-73
2022/10/31 00:33:37;;;;;;;11.52;10.35;;;;;;;9.01;100.00;154791.53;4975891;28;20100;-73
2022/10/31 00:36:08;;;;;;;11.82;10.52;;;;;;;9.05;100.00;154801.75;4956206;28;20064;-72
2022/10/31 00:38:34;;;;;;;11.32;10.23;;;;;;;9.00;100.00;154787.66;4986251;28;20575;-72
2022/10/31 00:40:59;;;;;;;16.42;10.13;;;;;;;8.93;100.00;154772.28;4981880;28;20129;-72
2022/10/31 00:43:25;;;;;;;13.45;10.18;;;;;;;8.90;100.00;154764.59;4999260;28;20044;-73
2022/10/31 00:45:51;;;;;;;12.05;9.90;;;;;;;8.88;100.00;154759.47;4987190;28;20037;-72
2022/10/31 00:48:17;;;;;;;11.70;10.60;;;;;;;8.86;100.00;154754.34;4969192;28;20033;-73
2022/10/31 00:50:43;;;;;;;14.48;10.32;;;;;;;8.83;100.00;154746.66;4983524;28;20096;-72
2022/10/31 00:53:09;;;;;;;11.18;10.13;;;;;;;8.82;100.00;154742.84;4979086;28;20040;-73
2022/10/31 00:55:35;;;;;;;11.82;9.50;;;;;;;8.81;100.00;154740.25;4987227;28;20038;-73
2022/10/31 00:58:01;;;;;;;10.23;9.13;;;;;;;8.77;100.00;154732.53;4989965;28;20038;-72
2022/10/31 01:00:27;;;;;;;10.77;9.77;;;;;;;8.76;100.00;154730.00;4990500;28;20033;-75
2022/10/31 01:02:52;;;;;;;12.95;9.95;;;;;;;8.75;100.00;154726.16;4987717;28;20048;-73
2022/10/31 01:05:21;;;;;;;11.52;10.52;;;;;;;8.74;100.00;154723.63;5003105;28;20108;-73
2022/10/31 01:07:51;;;;;;;11.38;9.82;;;;;;;8.72;100.00;154718.44;4982040;28;20096;-73
2022/10/31 01:10:18;;;;;;;11.45;9.38;;;;;;;8.69;100.00;154712.06;5006557;28;20038;-74
2022/10/31 01:12:48;;;;;;;10.00;8.65;;;;;;;8.70;100.00;154713.31;5006985;28;20049;-73
2022/10/31 01:15:20;;;;;;;9.70;8.80;;;;;;;8.70;100.00;154713.31;4973063;28;20065;-74
2022/10/31 01:17:47;;;;;;;10.00;8.77;;;;;;;8.69;100.00;154710.78;4990803;28;20234;-74
2022/10/31 01:20:15;;;;;;;11.35;9.30;;;;;;;8.66;100.00;154704.34;4999520;28;20161;-73
2022/10/31 01:22:44;;;;;;;12.18;9.73;;;;;;;8.66;100.00;154704.34;4968344;28;20888;-74
2022/10/31 01:25:11;;;;;;;10.18;9.00;;;;;;;8.65;100.00;154700.56;4990147;28;20033;-74
2022/10/31 01:27:37;;;;;;;12.02;9.95;;;;;;;8.65;100.00;154701.81;5007355;28;20041;-73
2022/10/31 01:30:07;;;;;;;12.18;9.70;;;;;;;8.62;100.00;154692.84;4974868;28;20053;-74
2022/10/31 01:32:33;;;;;;;10.68;9.57;;;;;;;8.66;100.00;154703.09;4969336;28;20041;-72
2022/10/31 01:35:00;;;;;;;12.98;10.30;;;;;;;8.70;100.00;154713.31;5002687;28;20738;-75
2022/10/31 01:37:30;;;;;;;11.85;10.65;;;;;;;8.80;100.00;154737.66;4990335;28;20042;-74
2022/10/31 01:39:57;;;;;;;12.27;10.88;;;;;;;8.84;100.00;154749.22;5004001;28;20046;-73
2022/10/31 01:42:23;;;;;;;12.18;10.32;;;;;;;8.81;100.00;154741.53;4966331;28;20054;-74
2022/10/31 01:45:00;;;;;;;12.88;10.95;;;;;;;8.80;100.00;154738.97;4989762;28;20041;-74
2022/10/31 01:47:56;;;;;;;13.13;11.63;;;;;;;8.79;100.00;154736.41;4988560;28;20104;-74
2022/10/31 01:50:37;;;;;;;13.68;11.82;;;;;;;8.76;100.00;154730.00;4980466;28;20380;-74
2022/10/31 01:53:11;;;;;;;13.45;11.95;;;;;;;8.80;100.00;154737.66;4990200;28;20207;-74
2022/10/31 01:55:44;;;;;;;15.77;11.93;;;;;;;8.64;100.00;154697.97;4971928;28;20034;-74
2022/10/31 01:58:20;;;;;;;15.15;12.55;;;;;;;8.66;100.00;154704.34;4968448;28;20042;-74
2022/10/31 02:00:50;;;;;;;15.50;12.48;;;;;;;8.68;100.00;154708.22;4988989;28;20053;-74
2022/10/31 02:03:18;;;;;;;14.52;12.32;;;;;;;8.64;100.00;154697.97;5004515;28;20042;-75
2022/10/31 02:05:44;;;;;;;16.17;13.27;;;;;;;8.63;100.00;154695.44;5003737;28;20124;-73
2022/10/31 02:08:18;;;;;;;21.52;13.52;;;;;;;8.64;100.00;154699.22;5004476;28;20479;-75
2022/10/31 02:10:48;;;;;;;17.63;13.43;;;;;;;8.66;100.00;154703.09;4997619;28;20092;-73
2022/10/31 02:13:14;;;;;;;19.52;14.20;;;;;;;8.65;100.00;154700.56;5020326;28;20752;-73
2022/10/31 02:15:49;;;;;;;20.00;13.35;;;;;;;8.69;100.00;154712.06;4990019;28;20125;-74
2022/10/31 02:18:15;;;;;;;19.90;13.63;;;;;;;8.70;100.00;154714.66;5006086;28;20064;-73
2022/10/31 02:20:54;;;;;;;20.42;15.50;;;;;;;8.75;100.00;154727.44;5021592;28;20557;-72
2022/10/31 02:23:26;;;;;;;24.67;15.90;;;;;;;8.76;100.00;154728.75;4994341;28;20086;-73
2022/10/31 02:26:26;;;;;;;30.80;18.83;;;;;;;8.77;100.00;154731.28;5004124;28;20108;-73
2022/10/31 02:29:09;;;;;;;36.58;19.27;;;;;;;8.81;100.00;154740.25;5006614;28;20045;-74
2022/10/31 02:32:00;;;;;;;27.92;19.05;;;;;;;8.85;100.00;154750.50;4983326;28;20563;-74
2022/10/31 02:34:51;;;;;;;34.67;21.33;;;;;;;8.90;100.00;154764.59;4987010;28;20032;-74
2022/10/31 02:37:40;;;;;;;26.50;17.08;;;;;;;8.89;100.00;154762.06;4988296;28;20137;-73
2022/10/31 02:40:13;;;;;;;28.35;19.23;;;;;;;8.92;100.00;154769.72;4991396;28;20065;-75
2022/10/31 02:43:18;;;;;;;27.30;18.13;;;;;;;8.93;100.00;154772.28;4973918;28;20056;-73
2022/10/31 02:45:59;;;;;;;37.05;23.42;;;;;;;8.98;100.00;154782.53;4982414;28;20574;-74
2022/10/31 02:48:34;;;;;;;46.83;24.20;;;;;;;8.98;100.00;154782.53;4974437;28;20042;-74
2022/10/31 02:51:03;;;;;;;;;;;;;;;9.02;100.00;154792.78;4990750;28;20041;-74
2022/10/31 02:53:36;;;;;;;41.10;23.80;;;;;;;9.06;100.00;154803.03;4968545;28;19918;-74
2022/10/31 02:56:15;;;;;;;39.40;23.85;;;;;;;9.06;100.00;154803.03;4990690;28;20518;-75
2022/10/31 02:59:13;;;;;;;44.40;25.42;;;;;;;9.12;100.00;154818.44;5003809;28;20066;-74
2022/10/31 03:02:01;;;;;;;48.78;26.67;;;;;;;9.14;100.00;154824.84;4982003;28;20156;-75
2022/10/31 03:05:01;;;;;;;51.05;30.92;;;;;;;9.20;100.00;154837.66;5004138;28;20446;-72
2022/10/31 03:07:44;;;;;;;49.15;30.25;;;;;;;9.16;100.00;154828.69;4986652;28;20053;-72
2022/10/31 03:10:20;;;;;;;72.57;36.83;;;;;;;9.24;100.00;154847.91;5022678;28;20483;-74
2022/10/31 03:12:58;;;;;;;78.43;36.70;;;;;;;9.25;100.00;154850.44;4986183;28;20133;-72
2022/10/31 03:15:32;;;;;;;65.28;35.25;;;;;;;9.25;100.00;154850.44;4986705;28;20487;-73
2022/10/31 03:18:09;;;;;;;70.10;36.33;;;;;;;9.28;100.00;154858.16;5003975;28;20769;-73
2022/10/31 03:20:44;;;;;;;80.30;38.60;;;;;;;9.35;100.00;154877.38;4977306;28;20064;-73
2022/10/31 03:23:14;;;;;;;68.72;35.67;;;;;;;9.33;100.00;154872.25;4979773;28;20099;-72
2022/10/31 03:25:43;;;;;;;79.25;39.17;;;;;;;9.41;100.00;154890.22;5002158;28;20034;-73
2022/10/31 03:28:14;;;;;;;52.55;30.45;;;;;;;9.37;100.00;154879.97;5004848;28;20098;-73
2022/10/31 03:30:44;;;;;;;68.40;33.97;;;;;;;9.30;100.00;154864.56;5004194;28;20563;-73
2022/10/31 03:33:16;;;;;;;57.38;32.65;;;;;;;9.29;100.00;154860.75;5001517;28;20079;-72
2022/10/31 03:35:48;;;;;;;60.85;34.45;;;;;;;9.29;100.00;154860.75;4990887;28;20121;-75
2022/10/31 03:38:14;;;;;;;83.05;40.85;;;;;;;9.33;100.00;154872.25;5000100;28;20059;-72
2022/10/31 03:40:43;;;;;;;73.72;38.05;;;;;;;9.42;100.00;154894.06;5009573;28;20065;-72
2022/10/31 03:43:16;;;;;;;61.65;34.08;;;;;;;9.43;100.00;154895.34;4963539;28;20085;-73
2022/10/31 03:45:46;;;;;;;106.22;39.42;;;;;;;9.37;100.00;154879.97;4978894;28;20117;-73
2022/10/31 03:48:14;;;;;;;66.70;34.72;;;;;;;9.37;100.00;154879.97;4969727;28;20045;-72
2022/10/31 03:50:49;;;;;;;62.53;34.38;;;;;;;9.35;100.00;154876.13;4984196;28;20108;-73
2022/10/31 03:53:23;;;;;;;68.47;35.45;;;;;;;9.34;100.00;154874.84;4995247;28;20038;-73
2022/10/31 03:55:54;;;;;;;66.15;34.83;;;;;;;9.35;100.00;154877.38;4989568;28;20141;-73
2022/10/31 03:58:28;;;;;;;61.70;34.55;;;;;;;9.29;100.00;154860.75;4980893;28;20037;-74
2022/10/31 04:00:57;;;;;;;60.05;33.50;;;;;;;9.35;100.00;154877.38;4986850;28;20065;-73
2022/10/31 04:03:26;;;;;;;83.63;38.33;;;;;;;9.35;100.00;154877.38;5002203;28;20112;-73
2022/10/31 04:05:58;;;;;;;57.58;31.50;;;;;;;9.25;100.00;154851.78;4984156;28;20499;-73
2022/10/31 04:08:28;;;;;;;66.05;32.97;;;;;;;9.17;100.00;154831.22;5000323;28;20589;-74
2022/10/31 04:10:57;;;;;;;61.30;32.08;;;;;;;9.12;100.00;154818.44;4999043;28;20141;-74
2022/10/31 04:13:28;;;;;;;53.13;31.38;;;;;;;9.06;100.00;154803.03;4985049;28;20040;-73
2022/10/31 04:16:10;;;;;;;54.08;30.00;;;;;;;9.05;100.00;154800.50;4981835;28;20054;-73
2022/10/31 04:18:36;;;;;;;53.65;31.35;;;;;;;9.03;100.00;154795.38;4983596;28;20093;-73
2022/10/31 04:21:07;;;;;;;61.63;32.40;;;;;;;9.03;100.00;154795.38;4995851;28;20057;-72
2022/10/31 04:23:35;;;;;;;63.00;35.63;;;;;;;9.07;100.00;154806.88;4970203;28;20394;-73
2022/10/31 04:26:11;;;;;;;58.15;31.70;;;;;;;9.03;100.00;154795.38;4986936;28;20038;-73
2022/10/31 04:28:37;;;;;;;57.97;32.50;;;;;;;8.99;100.00;154785.13;4990037;28;20492;-73
2022/10/31 04:31:02;;;;;;;59.42;32.88;;;;;;;9.00;100.00;154788.94;4973838;28;20042;-73
2022/10/31 04:33:29;;;;;;;65.75;35.15;;;;;;;8.97;100.00;154781.28;4990409;28;20045;-73
2022/10/31 04:35:54;;;;;;;64.85;34.78;;;;;;;8.97;100.00;154781.28;4989235;28;20743;-73
2022/10/31 04:38:20;;;;;;;71.80;36.88;;;;;;;9.04;100.00;154799.22;4988032;28;20065;-73
2022/10/31 04:40:47;;;;;;;69.15;37.30;;;;;;;9.01;100.00;154791.53;5006479;28;20070;-73
2022/10/31 04:43:31;;;;;;;86.72;40.70;;;;;;;9.03;100.00;154795.38;5004237;28;20045;-74
2022/10/31 04:45:59;;;;;;;76.75;37.30;;;;;;;9.03;100.00;154796.63;4996281;28;20103;-74
2022/10/31 04:48:25;;;;;;;77.10;38.88;;;;;;;9.02;100.00;154794.06;5006239;28;20292;-74
2022/10/31 04:50:50;;;;;;;76.88;39.17;;;;;;;9.07;100.00;154805.63;4993202;28;20049;-73
2022/10/31 04:53:16;;;;;;;80.22;40.15;;;;;;;9.14;100.00;154823.56;4992475;28;20045;-74
2022/10/31 04:56:07;;;;;;;77.53;39.85;;;;;;;9.20;100.00;154837.66;4996248;28;20121;-74
2022/10/31 04:58:40;;;;;;;82.05;42.08;;;;;;;9.25;100.00;154851.78;5008964;28;20033;-73
2022/10/31 05:01:07;;;;;;;90.78;42.70;;;;;;;9.30;100.00;154864.56;4992971;28;20469;-73
2022/10/31 05:03:33;;;;;;;78.47;41.53;;;;;;;9.39;100.00;154885.09;5001511;28;20636;-74
2022/10/31 05:05:58;;;;;;;93.00;45.50;;;;;;;9.44;100.00;154897.94;4992018;28;20038;-73
2022/10/31 05:08:24;;;;;;;95.03;45.85;;;;;;;9.52;100.00;154918.41;5009367;28;20037;-74
2022/10/31 05:10:51;;;;;;;87.47;43.08;;;;;;;9.59;100.00;154935.06;4989385;28;20455;-74
2022/10/31 05:13:17;;;;;;;114.35;47.58;;;;;;;9.60;100.00;154937.66;5006461;28;20033;-74
2022/10/31 05:16:01;;;;;;;102.03;48.25;;;;;;;9.66;100.00;154954.34;5003183;28;20175;-74
2022/10/31 05:18:45;;;;;;;96.72;45.63;;;;;;;9.72;100.00;154969.72;5008513;28;20056;-74
2022/10/31 05:21:30;;;;;;;98.07;47.17;;;;;;;9.77;100.00;154981.25;5008321;28;20076;-74
2022/10/31 05:24:01;;;;;;;105.45;48.83;;;;;;;9.85;100.00;155000.47;5022914;28;20048;-74
2022/10/31 05:26:27;;;;;;;94.68;46.08;;;;;;;9.86;100.00;155003.06;4988843;28;20038;-74
2022/10/31 05:28:54;;;;;;;99.53;48.30;;;;;;;9.95;100.00;155026.13;4980793;28;20034;-74
2022/10/31 05:31:20;;;;;;;103.20;47.90;;;;;;;9.97;100.00;155030.00;5007130;28;20060;-74
2022/10/31 05:33:46;;;;;;;108.10;49.42;;;;;;;10.16;100.00;155077.44;4984268;28;20069;-74
2022/10/31 05:36:31;;;;;;;122.80;51.47;;;;;;;10.15;100.00;155076.13;4995625;28;20034;-74
2022/10/31 05:38:59;;;;;;;118.65;52.95;;;;;;;10.20;100.00;155087.69;5003200;28;20121;-73
2022/10/31 05:41:29;;;;;;;114.65;50.95;;;;;;;10.19;100.00;153502.38;5007154;28;20040;-73
2022/10/31 05:44:04;;;;;;;107.78;49.72;;;;;;;10.17;100.00;153424.28;4974519;28;20037;-73
2022/10/31 05:46:33;;;;;;;96.93;48.55;;;;;;;10.25;100.00;152106.50;5002708;28;20037;-73
2022/10/31 05:49:17;;;;;;;122.95;52.78;;;;;;;10.30;100.00;149750.50;4998036;28;20050;-73
2022/10/31 05:52:12;;;;;;;112.90;52.00;;;;;;;10.29;100.00;147299.94;5005508;28;20523;-73
2022/10/31 05:54:48;;;;;;;124.35;51.60;;;;;;;10.31;100.00;144929.66;4994506;28;20034;-74
2022/10/31 05:57:14;;;;;;;150.55;57.30;;;;;;;10.81;100.00;136907.06;4992304;28;20075;-73
2022/10/31 05:59:40;;;;;;;127.30;53.92;;;;;;;10.71;100.00;135869.41;5022602;28;20061;-74
2022/10/31 06:02:06;;;;;;;126.40;51.50;;;;;;;10.64;100.00;134836.78;4989086;28;20134;-74
2022/10/31 06:04:50;;;;;;;124.00;52.95;;;;;;;10.69;100.00;132478.44;5007053;28;20041;-74
2022/10/31 06:07:16;;;;;;;131.50;52.95;;;;;;;10.67;100.00;130782.50;4984660;28;20042;-73
2022/10/31 06:09:42;;;;;;;129.10;52.35;;;;;;;10.65;100.00;129088.41;5003734;28;20492;-73
2022/10/31 06:12:09;;;;;;;134.23;51.55;;;;;;;10.63;100.00;128408.03;5007504;28;20038;-73
2022/10/31 06:15:08;;;;;;;148.48;53.38;;;;;;;10.68;100.00;125376.13;5005766;28;20121;-72
2022/10/31 06:17:34;;;;;;;125.22;51.05;;;;;;;10.70;100.00;123691.53;5007837;28;20837;-73
2022/10/31 06:20:36;;;;;;;123.00;48.38;;;;;;;10.72;100.00;122345.06;4988631;28;20041;-73
2022/10/31 06:23:03;;;;;;;139.00;53.60;;;;;;;10.76;100.00;120328.00;4989652;28;20069;-73
2022/10/31 06:25:31;;;;;;;175.45;58.67;;;;;;;10.82;100.00;118315.53;5006384;28;20567;-74
2022/10/31 06:27:57;;;;;;;156.25;53.97;;;;;;;10.90;100.00;115633.16;4972551;28;20027;-74
2022/10/31 06:30:28;;;;;;;172.10;52.63;;;;;;;10.87;100.00;114278.34;4978782;28;20484;-74
2022/10/31 06:32:54;;;;;;;166.50;54.92;;;;;;;10.87;100.00;112930.59;4986118;28;20434;-74
2022/10/31 06:35:20;;;;;;;171.15;57.22;;;;;;;10.93;100.00;111931.06;5006012;28;20049;-73
2022/10/31 06:37:53;;;;;;;176.25;56.63;;;;;;;10.98;100.00;110256.31;5006492;28;20103;-73
2022/10/31 06:40:35;;;;;;;167.45;57.85;;;;;;;11.10;100.00;106910.63;4999530;28;20125;-73
2022/10/31 06:43:24;;;;;;;174.20;56.65;;;;;;;11.10;100.00;105565.66;4986845;28;20537;-72
2022/10/31 06:46:02;;;;;;;201.65;61.83;;;;;;;11.15;100.00;103890.81;4986070;28;20613;-73
2022/10/31 06:48:35;;;;;;;170.45;58.05;;;;;;;11.16;100.00;102547.56;4998154;28;20038;-73
2022/10/31 06:51:18;;;;;;;182.10;57.22;;;;;;;11.17;100.00;100869.50;4990411;28;20119;-73
2022/10/31 06:53:44;;;;;;;166.60;55.97;;;;;;;11.19;100.00;99527.97;4975070;28;20487;-74
2022/10/31 06:56:11;;;;;;;227.70;61.72;;;;;;;11.27;100.00;98198.09;4990363;28;20064;-73
2022/10/31 06:58:44;;;;;;;184.57;60.75;;;;;;;11.30;100.00;97195.34;5005767;28;20059;-73
2022/10/31 07:01:12;;;;;;;184.45;58.92;;;;;;;11.27;100.00;96854.78;5005465;28;20088;-73
2022/10/31 07:03:38;;;;;;;155.98;57.42;;;;;;;11.28;100.00;96184.06;5005906;28;20084;-74
2022/10/31 07:06:05;;;;;;;180.30;58.70;;;;;;;11.26;100.00;96180.94;4990660;28;20041;-73
2022/10/31 07:08:31;;;;;;;171.77;57.47;;;;;;;11.33;100.00;95519.75;4987889;28;20085;-75
2022/10/31 07:10:57;;;;;;;154.05;55.17;;;;;;;11.32;100.00;94512.06;4987009;28;20176;-73
2022/10/31 07:13:27;;;;;;;127.32;51.03;;;;;;;11.39;100.00;92508.75;5022216;28;20045;-73
2022/10/31 07:16:06;;;;;;;136.05;49.80;;;;;;;11.36;100.00;91834.13;4965414;28;20045;-73
2022/10/31 07:18:34;;;;;;;149.65;48.67;;;;;;;11.40;100.00;90833.25;4990075;28;20048;-72
2022/10/31 07:20:59;;;;;;;140.15;49.60;;;;;;;11.37;100.00;91164.88;4985242;28;20038;-73
2022/10/31 07:23:25;;;;;;;123.28;46.75;;;;;;;11.37;100.00;90828.81;5004149;28;20048;-73
2022/10/31 07:26:11;;;;;;;123.32;47.25;;;;;;;11.36;100.00;90492.00;5007247;28;20033;-73
2022/10/31 07:28:42;;;;;;;115.80;46.33;;;;;;;11.42;100.00;89830.31;4968815;28;20048;-73
2022/10/31 07:31:08;;;;;;;108.43;43.83;;;;;;;11.44;100.00;89162.75;4988872;28;20029;-73
2022/10/31 07:33:36;;;;;;;106.68;43.15;;;;;;;11.48;100.00;88833.34;4986460;28;20038;-73
2022/10/31 07:36:36;;;;;;;100.75;43.42;;;;;;;11.47;100.00;89837.63;4955289;28;20037;-73
2022/10/31 07:39:03;;;;;;;98.15;42.20;;;;;;;11.48;100.00;89503.84;4982197;28;20049;-73
2022/10/31 07:41:30;;;;;;;92.03;40.92;;;;;;;11.54;100.00;88841.34;5005992;28;20495;-73
2022/10/31 07:43:56;;;;;;;96.85;39.50;;;;;;;11.52;100.00;88503.94;4991105;28;20037;-74
2022/10/31 07:46:53;;;;;;;78.53;38.35;;;;;;;11.54;100.00;88171.63;4967049;28;20124;-73
2022/10/31 07:49:38;;;;;;;79.97;38.95;;;;;;;11.52;100.00;89509.69;5005188;28;20124;-73
2022/10/31 07:52:26;;;;;;;75.50;37.38;;;;;;;11.50;100.00;89842.06;5006460;28;20034;-74
2022/10/31 07:55:30;;;;;;;99.82;40.90;;;;;;;11.55;100.00;90184.03;4989925;28;20049;-73
2022/10/31 07:57:59;;;;;;;105.38;42.33;;;;;;;11.57;100.00;89852.34;4973030;28;20053;-73
2022/10/31 08:00:25;;;;;;;75.40;37.45;;;;;;;11.65;100.00;89863.34;5002600;28;20104;-73
2022/10/31 08:02:59;;;;;;;92.05;38.50;;;;;;;11.64;100.00;91203.63;4989270;28;20057;-73
2022/10/31 08:05:56;;;;;;;72.03;37.13;;;;;;;11.64;100.00;91874.66;4990045;28;20103;-73
2022/10/31 08:08:41;;;;;;;84.38;39.08;;;;;;;11.70;100.00;92219.28;5000131;28;20049;-73
2022/10/31 08:11:08;;;;;;;65.90;36.40;;;;;;;11.79;100.00;93239.97;5001629;28;20042;-73
2022/10/31 08:13:34;;;;;;;87.45;39.00;;;;;;;11.79;100.00;94919.03;4987851;28;20059;-74
2022/10/31 08:16:03;;;;;;;82.03;38.70;;;;;;;11.83;100.00;95933.09;5021794;28;20030;-74
2022/10/31 08:18:30;;;;;;;72.60;37.13;;;;;;;11.80;100.00;98280.09;4987677;28;20038;-73
2022/10/31 08:20:57;;;;;;;82.45;38.10;;;;;;;11.82;100.00;100637.22;4998865;28;20089;-74
2022/10/31 08:23:23;;;;;;;71.13;36.22;;;;;;;11.81;100.00;103664.00;5004454;28;20460;-74
2022/10/31 08:25:48;;;;;;;71.22;34.50;;;;;;;11.81;100.00;106021.03;4989894;28;20519;-73
2022/10/31 08:28:14;;;;;;;77.97;35.08;;;;;;;11.79;100.00;109386.97;4989151;28;20125;-74
2022/10/31 08:30:42;;;;;;;77.07;33.10;;;;;;;11.78;100.00;112758.28;5001725;28;20049;-74
2022/10/31 08:33:31;;;;;;;71.93;32.67;;;;;;;11.80;100.00;116811.47;4984224;28;20059;-73
2022/10/31 08:36:15;;;;;;;70.07;32.33;;;;;;;11.81;100.00;120867.88;5004453;28;20046;-73
2022/10/31 08:38:55;;;;;;;80.13;35.50;;;;;;;11.84;100.00;125271.97;5010892;28;20045;-73
2022/10/31 08:41:21;;;;;;;82.22;37.47;;;;;;;11.91;100.00;128332.72;5019351;28;20033;-73
2022/10/31 08:43:47;;;;;;;83.45;39.88;;;;;;;11.87;100.00;132391.59;4989736;28;20495;-73
2022/10/31 08:46:14;;;;;;;73.28;37.20;;;;;;;11.88;100.00;137143.00;5004662;28;20479;-73
2022/10/31 08:48:42;;;;;;;74.13;38.38;;;;;;;11.92;100.00;141904.72;5004133;28;20052;-72
2022/10/31 08:51:09;;;;;;;74.13;34.95;;;;;;;11.87;100.00;146315.22;4989696;28;20061;-73
2022/10/31 08:53:35;;;;;;;84.57;36.67;;;;;;;11.90;100.00;150651.72;4988651;28;20795;-74
2022/10/31 08:56:26;;;;;;;78.60;35.38;;;;;;;11.93;100.00;153618.84;5005091;28;20116;-73
2022/10/31 08:58:53;;;;;;;74.55;34.33;;;;;;;11.93;100.00;155520.28;5001865;28;20120;-73
2022/10/31 09:01:26;;;;;;;65.35;31.85;;;;;;;11.89;100.00;155511.25;4973162;28;20061;-73
2022/10/31 09:03:51;;;;;;;72.15;32.63;;;;;;;11.91;100.00;155516.44;4988160;28;20133;-74
2022/10/31 09:06:17;;;;;;;69.95;33.42;;;;;;;11.95;100.00;155526.69;4980643;28;20053;-73
2022/10/31 09:08:42;;;;;;;76.85;35.50;;;;;;;12.01;100.00;155542.09;4988659;28;20060;-73
2022/10/31 09:11:08;;;;;;;71.22;33.10;;;;;;;12.06;100.00;155554.94;4987318;28;20053;-73
2022/10/31 09:13:54;;;;;;;67.25;32.08;;;;;;;12.14;100.00;155572.94;5006093;28;20041;-74
2022/10/31 09:16:37;;;;;;;66.70;32.97;;;;;;;12.23;100.00;155596.06;4988288;28;20029;-73
2022/10/31 09:19:05;;;;;;;73.93;33.75;;;;;;;12.16;100.00;155579.34;4991137;28;20052;-73
2022/10/31 09:21:31;;;;;;;64.00;30.88;;;;;;;12.15;100.00;155576.78;4992732;28;20665;-74
2022/10/31 09:23:57;;;;;;;69.13;33.47;;;;;;;12.12;100.00;155569.06;4991886;28;20041;-73
2022/10/31 09:26:24;;;;;;;77.55;35.20;;;;;;;12.11;100.00;155565.22;4991234;28;20273;-73
2022/10/31 09:28:57;;;;;;;79.97;37.13;;;;;;;12.14;100.00;155574.19;4991748;28;20137;-74
2022/10/31 09:31:23;;;;;;;72.07;32.67;;;;;;;12.16;100.00;155578.06;4991950;28;20037;-74
2022/10/31 09:34:07;;;;;;;62.40;30.88;;;;;;;12.22;100.00;155593.47;5008362;28;20072;-74
2022/10/31 09:36:53;;;;;;;61.85;32.30;;;;;;;12.22;100.00;155594.78;5009606;28;20065;-74
2022/10/31 09:39:22;;;;;;;68.63;34.25;;;;;;;12.21;100.00;155590.91;5010043;28;20515;-73
2022/10/31 09:42:02;;;;;;;71.50;34.17;;;;;;;12.20;100.00;155588.31;4993195;28;20041;-73
2022/10/31 09:44:56;;;;;;;61.45;31.13;;;;;;;12.34;100.00;155624.31;4996301;28;20045;-74
2022/10/31 09:47:40;;;;;;;56.83;29.35;;;;;;;12.34;100.00;155624.31;5009397;28;20581;-73
2022/10/31 09:50:49;;;;;;;51.17;29.17;;;;;;;12.36;100.00;155629.44;5005422;28;20484;-73
2022/10/31 09:53:52;;;;;;;64.80;32.17;;;;;;;12.35;100.00;155626.84;5002061;28;20120;-74
2022/10/31 09:56:23;;;;;;;59.47;30.08;;;;;;;12.44;100.00;155648.69;4989480;28;20042;-74
2022/10/31 09:58:55;;;;;;;58.78;30.15;;;;;;;12.44;100.00;155649.97;5008038;28;20037;-74
2022/10/31 10:01:39;;;;;;;54.50;29.27;;;;;;;12.39;100.00;155635.84;4976789;28;20041;-74
2022/10/31 10:04:16;;;;;;;63.08;30.35;;;;;;;12.35;100.00;155625.56;4993592;28;20046;-74
2022/10/31 10:06:54;;;;;;;58.72;29.77;;;;;;;12.34;100.00;155624.31;5005661;28;20438;-74
2022/10/31 10:09:46;;;;;;;61.05;33.25;;;;;;;12.38;100.00;155633.28;4979653;28;20050;-74
2022/10/31 10:13:19;;;;;;;58.65;30.70;;;;;;;12.43;100.00;155646.09;5001085;28;20049;-74
2022/10/31 10:16:03;;;;;;;65.88;33.35;;;;;;;12.44;100.00;155649.97;5008903;28;20128;-74
2022/10/31 10:18:53;;;;;;;61.60;34.30;;;;;;;12.50;100.00;155662.81;5002548;28;20065;-74
2022/10/31 10:22:06;;;;;;;69.47;34.83;;;;;;;12.44;100.00;155648.69;4988669;28;20042;-74
2022/10/31 10:24:50;;;;;;;73.50;36.87;;;;;;;12.36;100.00;155629.44;4975035;28;20056;-74
2022/10/31 10:27:28;;;;;;;66.45;36.03;;;;;;;12.30;100.00;155612.72;4974484;28;20073;-73
2022/10/31 10:30:12;;;;;;;69.85;34.85;;;;;;;12.32;100.00;155617.84;4992828;28;20089;-74
2022/10/31 10:32:51;;;;;;;73.55;35.17;;;;;;;12.27;100.00;155607.59;5002323;28;20112;-74
2022/10/31 10:35:37;;;;;;;65.00;34.22;;;;;;;12.27;100.00;155607.59;4990509;28;20044;-74
2022/10/31 10:38:22;;;;;;;77.07;36.65;;;;;;;12.34;100.00;155624.31;4992295;28;20043;-74
2022/10/31 10:40:47;;;;;;;60.53;34.10;;;;;;;12.36;100.00;155628.16;4992516;28;20045;-74
2022/10/31 10:43:35;;;;;;;67.32;35.10;;;;;;;12.40;100.00;155638.44;5009177;28;20057;-74
2022/10/31 10:49:02;;;;;;;55.08;32.22;;;;;;;12.42;100.00;155643.56;5013310;28;20050;-74
2022/10/31 10:51:37;;;;;;;47.40;28.83;;;;;;;12.41;100.00;155642.28;4991616;28;20057;-74
2022/10/31 10:54:20;;;;;;;54.45;31.08;;;;;;;12.48;100.00;155657.69;4984559;28;20152;-73
2022/10/31 10:56:55;;;;;;;53.30;31.42;;;;;;;12.62;100.00;155693.63;4987815;28;20069;-74
2022/10/31 10:59:22;;;;;;;51.13;30.33;;;;;;;12.67;100.00;155706.50;5007248;28;20049;-74
2022/10/31 11:01:50;;;;;;;48.33;28.48;;;;;;;12.70;100.00;155714.22;4981388;28;20065;-74
2022/10/31 11:04:33;;;;;;;42.83;26.50;;;;;;;12.80;100.00;155738.63;5004380;28;20038;-74
2022/10/31 11:07:03;;;;;;;39.83;25.60;;;;;;;12.80;100.00;155739.88;4975157;28;20088;-73
2022/10/31 11:09:29;;;;;;;43.15;27.85;;;;;;;12.83;100.00;155747.63;4991385;28;20034;-74
2022/10/31 11:11:55;;;;;;;43.97;26.30;;;;;;;12.84;100.00;155748.88;4988284;28;20053;-74
2022/10/31 11:14:22;;;;;;;40.92;26.38;;;;;;;12.84;100.00;155750.16;5007052;28;20128;-74
2022/10/31 11:17:08;;;;;;;39.85;25.55;;;;;;;12.82;100.00;155745.03;5000936;28;20037;-74
2022/10/31 11:19:34;;;;;;;42.13;27.55;;;;;;;12.81;100.00;155742.47;5000151;28;20315;-74
2022/10/31 11:22:14;;;;;;;50.15;28.83;;;;;;;12.82;100.00;155745.03;5006934;28;20042;-74
2022/10/31 11:24:41;;;;;;;45.72;27.70;;;;;;;12.84;100.00;155750.16;5017141;28;20040;-74
2022/10/31 11:27:13;;;;;;;36.03;24.02;;;;;;;12.87;100.00;155756.59;4984650;28;20044;-74
2022/10/31 11:29:38;;;;;;;36.17;23.50;;;;;;;12.88;100.00;155757.88;5000674;28;20048;-74
2022/10/31 11:32:04;;;;;;;37.95;24.33;;;;;;;12.83;100.00;155746.34;5006817;28;20053;-74
2022/10/31 11:34:33;;;;;;;39.53;24.55;;;;;;;12.80;100.00;155739.88;4997554;28;20821;-74
2022/10/31 11:37:13;;;;;;;37.72;24.20;;;;;;;12.77;100.00;155732.22;5007080;28;20030;-74
2022/10/31 11:39:42;;;;;;;41.00;24.20;;;;;;;12.81;100.00;155742.47;5003229;28;20056;-74